Admiral — WCY6529 — position and weather

sailwx.info

Track history (hours):
 
Tides and Currents Weather Stations Pressure Air Temp Water Temp Dewpoint Dewpoint Depression Visibility Wind Speed Wind Dir Waves Ship Positions

Admiral

Owner: Crowley Marine Services, SEATTLE, WA. More information available from US FCC via Universal Licensing System and Coast Guard Vessel Documentation Center.

Last reported at 2016-Jul-24 10:33 UTC. Time now 2016-Jul-24 10:41 UTC.
Position N 33°45' W 118°17'.

; draft 5.3 m.

Type: Tug. MMSI: 366755020.

Date/timePositionNaut miles runAvg speedWind from/ knotsBaromVisibWave heightAir tempDewpointWater temp
2016-Jul-24 10:33N 33°45' W 118°17'0 0.1
2016-Jul-24 09:33N 33°45' W 118°17'1 1.1
2016-Jul-24 08:34N 33°44' W 118°17'0 0.0
2016-Jul-24 07:33N 33°44' W 118°17'0 0.0
2016-Jul-24 06:33N 33°44' W 118°17'0 0.5
2016-Jul-24 05:34N 33°44' W 118°17'4 3.8
2016-Jul-24 04:33N 33°46' W 118°13'2 1.4
2016-Jul-24 03:21N 33°45' W 118°13'1 1.5
2016-Jul-24 02:33N 33°44' W 118°12'1 0.5
2016-Jul-24 01:23N 33°44' W 118°12'2 2.3
2016-Jul-24 00:33N 33°46' W 118°13'1 1.0
2016-Jul-23 23:33N 33°45' W 118°13'3 3.0
2016-Jul-23 22:34N 33°43' W 118°15'3 3.2
2016-Jul-23 21:32N 33°46' W 118°14'2 2.4
2016-Jul-23 20:34N 33°44' W 118°17'0 0.0
2016-Jul-23 19:34N 33°44' W 118°17'4 4.0
2016-Jul-23 18:34N 33°41' W 118°19'8 8.4
2016-Jul-23 17:34N 33°46' W 118°27'8 8.1
2016-Jul-23 16:33N 33°54' W 118°27'0 0.5
2016-Jul-23 15:33N 33°54' W 118°27'0 0.1
2016-Jul-23 14:33N 33°54' W 118°27'0 0.1
2016-Jul-23 13:27N 33°54' W 118°27'5 6.0
2016-Jul-23 12:33N 33°48' W 118°27'8 8.2
2016-Jul-23 11:34N 33°42' W 118°22'5 5.4
2016-Jul-23 10:33N 33°43' W 118°16'1 1.1
2016-Jul-23 09:25N 33°44' W 118°17'0 0.0
2016-Jul-23 08:32N 33°44' W 118°17'0 0.0
2016-Jul-23 07:30N 33°44' W 118°17'0 0.0
2016-Jul-23 06:34N 33°44' W 118°17'5 2.4
2016-Jul-23 04:33N 33°43' W 118°11'1 1.1
2016-Jul-23 03:32N 33°44' W 118°12'3 3.4
2016-Jul-23 02:33N 33°43' W 118°16'2 2.2
2016-Jul-23 01:33N 33°45' W 118°16'1 1.1
2016-Jul-23 00:32N 33°44' W 118°17'0 0.0
2016-Jul-22 23:31N 33°44' W 118°17'0 0.0
2016-Jul-22 22:32N 33°44' W 118°17'0 0.0
2016-Jul-22 21:33N 33°44' W 118°17'0 0.0
2016-Jul-22 20:19N 33°44' W 118°17'0 0.0
2016-Jul-22 19:33N 33°44' W 118°17'3 2.8
2016-Jul-22 18:34N 33°44' W 118°13'2 1.7
2016-Jul-22 17:33N 33°46' W 118°13'2 2.2
2016-Jul-22 16:34N 33°44' W 118°12'0 0.3
2016-Jul-22 15:34N 33°44' W 118°12'4 3.6
2016-Jul-22 14:33N 33°43' W 118°16'1 1.5
2016-Jul-22 13:34N 33°44' W 118°17'0 0.0
2016-Jul-22 12:32N 33°44' W 118°17'1 1.4
2016-Jul-22 11:33N 33°44' W 118°15'1 1.0
2016-Jul-22 10:33N 33°43' W 118°16'1 1.0
2016-Jul-22 09:33N 33°44' W 118°17'1 1.0
2016-Jul-22 08:34N 33°43' W 118°16'2 1.9
2016-Jul-22 07:33N 33°45' W 118°17'1 0.5
2016-Jul-22 05:33N 33°44' W 118°17'0 0.0
2016-Jul-22 04:33N 33°44' W 118°17'0 0.0
2016-Jul-22 03:34N 33°44' W 118°17'1 1.1
2016-Jul-22 02:31N 33°44' W 118°16'0 0.2
2016-Jul-22 01:34N 33°44' W 118°16'1 1.1
2016-Jul-22 00:32N 33°44' W 118°17'1 0.9
2016-Jul-21 23:32N 33°45' W 118°16'1 1.4
2016-Jul-21 22:32N 33°44' W 118°16'1 0.6
2016-Jul-21 21:34N 33°44' W 118°17'0 0.0
2016-Jul-21 20:34N 33°44' W 118°17'0 0.0
2016-Jul-21 19:31N 33°44' W 118°17'0 0.0
2016-Jul-21 18:34N 33°44' W 118°17'0 0.0
2016-Jul-21 17:33N 33°44' W 118°17'0 0.0
2016-Jul-21 16:34N 33°44' W 118°17'0 0.0
2016-Jul-21 15:33N 33°44' W 118°17'0 0.0
2016-Jul-21 14:34N 33°44' W 118°17'2 1.6
2016-Jul-21 13:34N 33°46' W 118°15'1 1.5
2016-Jul-21 12:33N 33°44' W 118°17'2 1.8
2016-Jul-21 11:34N 33°45' W 118°15'2 2.1
2016-Jul-21 10:33N 33°44' W 118°12'1 0.7
2016-Jul-21 09:33N 33°44' W 118°12'1 1.1
2016-Jul-21 08:34N 33°45' W 118°12'2 1.5
2016-Jul-21 07:33N 33°43' W 118°13'3 3.0
2016-Jul-21 06:33N 33°44' W 118°17'0 0.0
2016-Jul-21 05:34N 33°44' W 118°17'0 0.0
2016-Jul-21 04:33N 33°44' W 118°17'0 0.0
2016-Jul-21 03:33N 33°44' W 118°17'0 0.0
2016-Jul-21 02:34N 33°44' W 118°17'0 0.0
2016-Jul-21 01:34N 33°44' W 118°17'0 0.0
2016-Jul-21 00:33N 33°44' W 118°17'0 0.0
2016-Jul-20 23:34N 33°44' W 118°17'1 1.1
2016-Jul-20 22:33N 33°46' W 118°16'3 3.2
2016-Jul-20 21:34N 33°43' W 118°15'2 2.3
2016-Jul-20 20:33N 33°44' W 118°17'0 0.0
2016-Jul-20 19:33N 33°44' W 118°17'0 0.0
2016-Jul-20 18:34N 33°44' W 118°17'0 0.0
2016-Jul-20 17:34N 33°44' W 118°17'0 0.0
2016-Jul-20 16:34N 33°44' W 118°17'0 0.0
2016-Jul-20 15:31N 33°44' W 118°17'0 0.0
2016-Jul-20 14:34N 33°44' W 118°17'0 0.0
2016-Jul-20 13:33N 33°44' W 118°17'0 0.0
2016-Jul-20 12:34N 33°44' W 118°17'0 0.0
2016-Jul-20 11:32N 33°44' W 118°17'0 0.0
2016-Jul-20 10:32N 33°44' W 118°17'0 0.0
2016-Jul-20 09:33N 33°44' W 118°17'0 0.0
2016-Jul-20 08:33N 33°44' W 118°17'0 0.0
2016-Jul-20 07:33N 33°44' W 118°17'0 0.0
2016-Jul-20 06:34N 33°44' W 118°17'0 0.0
2016-Jul-20 05:34N 33°44' W 118°17'0 0.0
2016-Jul-20 04:34N 33°44' W 118°17'0 0.0
2016-Jul-20 03:34N 33°44' W 118°17'0 0.0
2016-Jul-20 02:34N 33°44' W 118°17'0 0.0
2016-Jul-20 01:33N 33°44' W 118°17'0 0.0
2016-Jul-20 00:34N 33°44' W 118°17'0 0.0
2016-Jul-19 23:33N 33°44' W 118°17'0 0.0
2016-Jul-19 22:34N 33°44' W 118°17'0 0.0
2016-Jul-19 21:34N 33°44' W 118°17'0 0.0
2016-Jul-19 20:33N 33°44' W 118°17'0 0.0
2016-Jul-19 19:33N 33°44' W 118°17'0 0.0
2016-Jul-19 18:34N 33°44' W 118°17'0 0.0
2016-Jul-19 17:34N 33°44' W 118°17'0 0.0
2016-Jul-19 16:34N 33°44' W 118°17'0 0.0
2016-Jul-19 15:33N 33°44' W 118°17'0 0.0
2016-Jul-19 14:33N 33°44' W 118°17'0 0.0
2016-Jul-19 13:33N 33°44' W 118°17'0 0.0
2016-Jul-19 12:33N 33°44' W 118°17'0 0.1
2016-Jul-19 11:34N 33°44' W 118°17'1 1.3
2016-Jul-19 10:34N 33°44' W 118°15'1 1.1
2016-Jul-19 09:34N 33°43' W 118°16'1 1.2
2016-Jul-19 08:34N 33°44' W 118°17'0 0.0
2016-Jul-19 07:34N 33°44' W 118°17'0 0.0
2016-Jul-19 04:34N 33°44' W 118°17'0 0.0
2016-Jul-19 03:33N 33°44' W 118°17'0 0.0
2016-Jul-19 02:33N 33°44' W 118°17'1 1.4
2016-Jul-19 01:33N 33°43' W 118°16'2 1.9
2016-Jul-19 00:34N 33°45' W 118°16'1 0.8
2016-Jul-18 23:33N 33°44' W 118°17'0 0.0
2016-Jul-18 22:33N 33°44' W 118°17'1 1.2
2016-Jul-18 21:33N 33°44' W 118°15'1 0.7
2016-Jul-18 20:33N 33°43' W 118°16'1 1.2
2016-Jul-18 19:33N 33°44' W 118°17'0 0.0
2016-Jul-18 18:34N 33°44' W 118°17'0 0.0
2016-Jul-18 16:19N 33°44' W 118°17'0 0.0
2016-Jul-18 15:23N 33°44' W 118°17'0 0.1
2016-Jul-18 14:33N 33°44' W 118°17'3 3.2
2016-Jul-18 13:33N 33°45' W 118°13'1 0.4
2016-Jul-18 12:25N 33°45' W 118°13'3 3.0
2016-Jul-18 11:34N 33°44' W 118°16'1 0.7
2016-Jul-18 10:27N 33°44' W 118°17'0 0.5
2016-Jul-18 09:29N 33°44' W 118°17'0 0.0
2016-Jul-18 08:32N 33°44' W 118°17'0 0.0
2016-Jul-18 07:34N 33°44' W 118°17'0 0.0
2016-Jul-18 06:24N 33°44' W 118°17'0 0.5
2016-Jul-18 05:33N 33°45' W 118°16'0 0.2
2016-Jul-18 04:23N 33°45' W 118°16'4 5.2
2016-Jul-18 03:33N 33°43' W 118°12'4 3.8
2016-Jul-18 02:33N 33°44' W 118°16'1 0.9
2016-Jul-18 01:33N 33°44' W 118°17'0 0.0
2016-Jul-18 00:34N 33°44' W 118°17'0 0.0
2016-Jul-17 23:28N 33°44' W 118°17'0 0.0
2016-Jul-17 22:32N 33°44' W 118°17'0 0.0
2016-Jul-17 21:33N 33°44' W 118°17'0 0.0
2016-Jul-17 20:31N 33°44' W 118°17'0 0.0
2016-Jul-17 18:33N 33°44' W 118°17'0 0.0
2016-Jul-17 17:30N 33°44' W 118°17'0 0.0
2016-Jul-17 15:19N 33°44' W 118°17'0 0.0
2016-Jul-17 14:31N 33°44' W 118°17'0 0.0
2016-Jul-17 13:33N 33°44' W 118°17'2 2.3
2016-Jul-17 12:33N 33°43' W 118°15'3 2.6
2016-Jul-17 11:33N 33°45' W 118°16'1 0.6
2016-Jul-17 10:34N 33°44' W 118°17'0 0.0
2016-Jul-17 09:31N 33°44' W 118°17'0 0.0
2016-Jul-17 08:32N 33°44' W 118°17'0 0.0
2016-Jul-17 07:08N 33°44' W 118°17'0 0.0
2016-Jul-17 06:29N 33°44' W 118°17'0 0.0
2016-Jul-17 04:22N 33°44' W 118°17'0 0.0
2016-Jul-17 03:31N 33°44' W 118°17'0 0.0
2016-Jul-17 02:18N 33°44' W 118°17'0 0.0
2016-Jul-17 01:34N 33°44' W 118°17'0 0.0
2016-Jul-17 00:33N 33°44' W 118°17'0 0.0
2016-Jul-16 23:33N 33°44' W 118°17'0 0.0
2016-Jul-16 22:29N 33°44' W 118°17'1 1.2
2016-Jul-16 21:33N 33°43' W 118°16'3 2.9
2016-Jul-16 20:27N 33°46' W 118°14'1 0.3
2016-Jul-16 18:26N 33°46' W 118°13'4 4.2
2016-Jul-16 17:33N 33°43' W 118°15'2 2.0
2016-Jul-16 16:33N 33°44' W 118°17'0 0.0
2016-Jul-16 15:33N 33°44' W 118°17'0 0.0
2016-Jul-16 14:33N 33°44' W 118°17'0 0.0
2016-Jul-16 13:32N 33°44' W 118°17'0 0.0
2016-Jul-16 12:33N 33°44' W 118°17'1 1.4
2016-Jul-16 11:32N 33°46' W 118°16'1 0.6
2016-Jul-16 10:34N 33°46' W 118°15'2 2.0
2016-Jul-16 09:34N 33°44' W 118°17'0 0.0
2016-Jul-16 08:33N 33°44' W 118°17'0 0.0
2016-Jul-16 07:34N 33°44' W 118°17'0 0.0
2016-Jul-16 06:32N 33°44' W 118°17'0 0.0
2016-Jul-16 04:33N 33°44' W 118°17'0 0.0
2016-Jul-16 03:33N 33°44' W 118°17'0 0.0
2016-Jul-16 02:34N 33°44' W 118°17'0 0.0
2016-Jul-16 01:33N 33°44' W 118°17'0 0.0
2016-Jul-16 00:32N 33°44' W 118°17'0 0.0
2016-Jul-15 23:33N 33°44' W 118°17'0 0.0
2016-Jul-15 22:33N 33°44' W 118°17'3 3.2
2016-Jul-15 21:33N 33°46' W 118°13'1 0.6
2016-Jul-15 20:33N 33°45' W 118°13'2 1.7
2016-Jul-15 19:33N 33°43' W 118°13'3 3.2
2016-Jul-15 18:33N 33°44' W 118°17'2 2.3
2016-Jul-15 17:32N 33°46' W 118°14'2 2.5
2016-Jul-15 16:34N 33°44' W 118°17'2 2.4
2016-Jul-15 15:34N 33°43' W 118°14'2 1.7
2016-Jul-15 14:24N 33°45' W 118°13'1 1.5
2016-Jul-15 13:32N 33°46' W 118°13'1 0.9
2016-Jul-15 12:33N 33°45' W 118°13'2 2.3
2016-Jul-15 11:33N 33°44' W 118°11'4 4.4
2016-Jul-15 10:33N 33°44' W 118°17'0 0.0
2016-Jul-15 09:33N 33°44' W 118°17'0 0.0
2016-Jul-15 08:30N 33°44' W 118°17'0 0.0
2016-Jul-15 07:33N 33°44' W 118°17'0 0.0
2016-Jul-15 06:33N 33°44' W 118°17'0 0.0
2016-Jul-15 05:33N 33°44' W 118°17'0 0.0
2016-Jul-15 04:33N 33°44' W 118°17'0 0.0
2016-Jul-15 03:34N 33°44' W 118°17'0 0.0
2016-Jul-15 02:33N 33°44' W 118°17'2 1.5
2016-Jul-15 01:33N 33°43' W 118°16'1 0.8
2016-Jul-15 00:33N 33°44' W 118°15'1 1.2
2016-Jul-14 23:33N 33°44' W 118°17'0 0.0
2016-Jul-14 22:34N 33°44' W 118°17'0 0.0
2016-Jul-14 21:33N 33°44' W 118°17'0 0.0
2016-Jul-14 20:33N 33°44' W 118°17'0 0.0
2016-Jul-14 19:32N 33°44' W 118°17'0 0.0
2016-Jul-14 18:34N 33°44' W 118°17'0 0.0
2016-Jul-14 17:21N 33°44' W 118°17'0 0.0
2016-Jul-14 16:34N 33°44' W 118°17'0 0.0
2016-Jul-14 15:32N 33°44' W 118°17'0 0.0
2016-Jul-14 14:19N 33°44' W 118°17'1 1.5
2016-Jul-14 13:34N 33°44' W 118°16'2 1.6
2016-Jul-14 12:34N 33°43' W 118°14'2 1.8
2016-Jul-14 11:33N 33°44' W 118°12'  
Track history (hours):
 
Tides and Currents Weather Stations Pressure Air Temp Water Temp Dewpoint Dewpoint Depression Visibility Wind Speed Wind Dir Waves Ship Positions

Admiral

Owner: Crowley Marine Services, SEATTLE, WA. More information available from US FCC via Universal Licensing System and Coast Guard Vessel Documentation Center.

Last reported at 2016-Jul-24 10:33 UTC. Time now 2016-Jul-24 10:41 UTC.
Position N 33°45' W 118°17'.

; draft 5.3 m.

Type: Tug. MMSI: 366755020.

Date/timePositionNaut miles runAvg speedWind from/ knotsBaromVisibWave heightAir tempDewpointWater temp
2016-Jul-24 10:33N 33°45' W 118°17'0 0.1
2016-Jul-24 09:33N 33°45' W 118°17'1 1.1
2016-Jul-24 08:34N 33°44' W 118°17'0 0.0
2016-Jul-24 07:33N 33°44' W 118°17'0 0.0
2016-Jul-24 06:33N 33°44' W 118°17'0 0.5
2016-Jul-24 05:34N 33°44' W 118°17'4 3.8
2016-Jul-24 04:33N 33°46' W 118°13'2 1.4
2016-Jul-24 03:21N 33°45' W 118°13'1 1.5
2016-Jul-24 02:33N 33°44' W 118°12'1 0.5
2016-Jul-24 01:23N 33°44' W 118°12'2 2.3
2016-Jul-24 00:33N 33°46' W 118°13'1 1.0
2016-Jul-23 23:33N 33°45' W 118°13'3 3.0
2016-Jul-23 22:34N 33°43' W 118°15'3 3.2
2016-Jul-23 21:32N 33°46' W 118°14'2 2.4
2016-Jul-23 20:34N 33°44' W 118°17'0 0.0
2016-Jul-23 19:34N 33°44' W 118°17'4 4.0
2016-Jul-23 18:34N 33°41' W 118°19'8 8.4
2016-Jul-23 17:34N 33°46' W 118°27'8 8.1
2016-Jul-23 16:33N 33°54' W 118°27'0 0.5
2016-Jul-23 15:33N 33°54' W 118°27'0 0.1
2016-Jul-23 14:33N 33°54' W 118°27'0 0.1
2016-Jul-23 13:27N 33°54' W 118°27'5 6.0
2016-Jul-23 12:33N 33°48' W 118°27'8 8.2
2016-Jul-23 11:34N 33°42' W 118°22'5 5.4
2016-Jul-23 10:33N 33°43' W 118°16'1 1.1
2016-Jul-23 09:25N 33°44' W 118°17'0 0.0
2016-Jul-23 08:32N 33°44' W 118°17'0 0.0
2016-Jul-23 07:30N 33°44' W 118°17'0 0.0
2016-Jul-23 06:34N 33°44' W 118°17'5 2.4
2016-Jul-23 04:33N 33°43' W 118°11'1 1.1
2016-Jul-23 03:32N 33°44' W 118°12'3 3.4
2016-Jul-23 02:33N 33°43' W 118°16'2 2.2
2016-Jul-23 01:33N 33°45' W 118°16'1 1.1
2016-Jul-23 00:32N 33°44' W 118°17'0 0.0
2016-Jul-22 23:31N 33°44' W 118°17'0 0.0
2016-Jul-22 22:32N 33°44' W 118°17'0 0.0
2016-Jul-22 21:33N 33°44' W 118°17'0 0.0
2016-Jul-22 20:19N 33°44' W 118°17'0 0.0
2016-Jul-22 19:33N 33°44' W 118°17'3 2.8
2016-Jul-22 18:34N 33°44' W 118°13'2 1.7
2016-Jul-22 17:33N 33°46' W 118°13'2 2.2
2016-Jul-22 16:34N 33°44' W 118°12'0 0.3
2016-Jul-22 15:34N 33°44' W 118°12'4 3.6
2016-Jul-22 14:33N 33°43' W 118°16'1 1.5
2016-Jul-22 13:34N 33°44' W 118°17'0 0.0
2016-Jul-22 12:32N 33°44' W 118°17'1 1.4
2016-Jul-22 11:33N 33°44' W 118°15'1 1.0
2016-Jul-22 10:33N 33°43' W 118°16'1 1.0
2016-Jul-22 09:33N 33°44' W 118°17'1 1.0
2016-Jul-22 08:34N 33°43' W 118°16'2 1.9
2016-Jul-22 07:33N 33°45' W 118°17'1 0.5
2016-Jul-22 05:33N 33°44' W 118°17'0 0.0
2016-Jul-22 04:33N 33°44' W 118°17'0 0.0
2016-Jul-22 03:34N 33°44' W 118°17'1 1.1
2016-Jul-22 02:31N 33°44' W 118°16'0 0.2
2016-Jul-22 01:34N 33°44' W 118°16'1 1.1
2016-Jul-22 00:32N 33°44' W 118°17'1 0.9
2016-Jul-21 23:32N 33°45' W 118°16'1 1.4
2016-Jul-21 22:32N 33°44' W 118°16'1 0.6
2016-Jul-21 21:34N 33°44' W 118°17'0 0.0
2016-Jul-21 20:34N 33°44' W 118°17'0 0.0
2016-Jul-21 19:31N 33°44' W 118°17'0 0.0
2016-Jul-21 18:34N 33°44' W 118°17'0 0.0
2016-Jul-21 17:33N 33°44' W 118°17'0 0.0
2016-Jul-21 16:34N 33°44' W 118°17'0 0.0
2016-Jul-21 15:33N 33°44' W 118°17'0 0.0
2016-Jul-21 14:34N 33°44' W 118°17'2 1.6
2016-Jul-21 13:34N 33°46' W 118°15'1 1.5
2016-Jul-21 12:33N 33°44' W 118°17'2 1.8
2016-Jul-21 11:34N 33°45' W 118°15'2 2.1
2016-Jul-21 10:33N 33°44' W 118°12'1 0.7
2016-Jul-21 09:33N 33°44' W 118°12'1 1.1
2016-Jul-21 08:34N 33°45' W 118°12'2 1.5
2016-Jul-21 07:33N 33°43' W 118°13'3 3.0
2016-Jul-21 06:33N 33°44' W 118°17'0 0.0
2016-Jul-21 05:34N 33°44' W 118°17'0 0.0
2016-Jul-21 04:33N 33°44' W 118°17'0 0.0
2016-Jul-21 03:33N 33°44' W 118°17'0 0.0
2016-Jul-21 02:34N 33°44' W 118°17'0 0.0
2016-Jul-21 01:34N 33°44' W 118°17'0 0.0
2016-Jul-21 00:33N 33°44' W 118°17'0 0.0
2016-Jul-20 23:34N 33°44' W 118°17'1 1.1
2016-Jul-20 22:33N 33°46' W 118°16'3 3.2
2016-Jul-20 21:34N 33°43' W 118°15'2 2.3
2016-Jul-20 20:33N 33°44' W 118°17'0 0.0
2016-Jul-20 19:33N 33°44' W 118°17'0 0.0
2016-Jul-20 18:34N 33°44' W 118°17'0 0.0
2016-Jul-20 17:34N 33°44' W 118°17'0 0.0
2016-Jul-20 16:34N 33°44' W 118°17'0 0.0
2016-Jul-20 15:31N 33°44' W 118°17'0 0.0
2016-Jul-20 14:34N 33°44' W 118°17'0 0.0
2016-Jul-20 13:33N 33°44' W 118°17'0 0.0
2016-Jul-20 12:34N 33°44' W 118°17'0 0.0
2016-Jul-20 11:32N 33°44' W 118°17'0 0.0
2016-Jul-20 10:32N 33°44' W 118°17'0 0.0
2016-Jul-20 09:33N 33°44' W 118°17'0 0.0
2016-Jul-20 08:33N 33°44' W 118°17'0 0.0
2016-Jul-20 07:33N 33°44' W 118°17'0 0.0
2016-Jul-20 06:34N 33°44' W 118°17'0 0.0
2016-Jul-20 05:34N 33°44' W 118°17'0 0.0
2016-Jul-20 04:34N 33°44' W 118°17'0 0.0
2016-Jul-20 03:34N 33°44' W 118°17'0 0.0
2016-Jul-20 02:34N 33°44' W 118°17'0 0.0
2016-Jul-20 01:33N 33°44' W 118°17'0 0.0
2016-Jul-20 00:34N 33°44' W 118°17'0 0.0
2016-Jul-19 23:33N 33°44' W 118°17'0 0.0
2016-Jul-19 22:34N 33°44' W 118°17'0 0.0
2016-Jul-19 21:34N 33°44' W 118°17'0 0.0
2016-Jul-19 20:33N 33°44' W 118°17'0 0.0
2016-Jul-19 19:33N 33°44' W 118°17'0 0.0
2016-Jul-19 18:34N 33°44' W 118°17'0 0.0
2016-Jul-19 17:34N 33°44' W 118°17'0 0.0
2016-Jul-19 16:34N 33°44' W 118°17'0 0.0
2016-Jul-19 15:33N 33°44' W 118°17'0 0.0
2016-Jul-19 14:33N 33°44' W 118°17'0 0.0
2016-Jul-19 13:33N 33°44' W 118°17'0 0.0
2016-Jul-19 12:33N 33°44' W 118°17'0 0.1
2016-Jul-19 11:34N 33°44' W 118°17'1 1.3
2016-Jul-19 10:34N 33°44' W 118°15'1 1.1
2016-Jul-19 09:34N 33°43' W 118°16'1 1.2
2016-Jul-19 08:34N 33°44' W 118°17'0 0.0
2016-Jul-19 07:34N 33°44' W 118°17'0 0.0
2016-Jul-19 04:34N 33°44' W 118°17'0 0.0
2016-Jul-19 03:33N 33°44' W 118°17'0 0.0
2016-Jul-19 02:33N 33°44' W 118°17'1 1.4
2016-Jul-19 01:33N 33°43' W 118°16'2 1.9
2016-Jul-19 00:34N 33°45' W 118°16'1 0.8
2016-Jul-18 23:33N 33°44' W 118°17'0 0.0
2016-Jul-18 22:33N 33°44' W 118°17'1 1.2
2016-Jul-18 21:33N 33°44' W 118°15'1 0.7
2016-Jul-18 20:33N 33°43' W 118°16'1 1.2
2016-Jul-18 19:33N 33°44' W 118°17'0 0.0
2016-Jul-18 18:34N 33°44' W 118°17'0 0.0
2016-Jul-18 16:19N 33°44' W 118°17'0 0.0
2016-Jul-18 15:23N 33°44' W 118°17'0 0.1
2016-Jul-18 14:33N 33°44' W 118°17'3 3.2
2016-Jul-18 13:33N 33°45' W 118°13'1 0.4
2016-Jul-18 12:25N 33°45' W 118°13'3 3.0
2016-Jul-18 11:34N 33°44' W 118°16'1 0.7
2016-Jul-18 10:27N 33°44' W 118°17'0 0.5
2016-Jul-18 09:29N 33°44' W 118°17'0 0.0
2016-Jul-18 08:32N 33°44' W 118°17'0 0.0
2016-Jul-18 07:34N 33°44' W 118°17'0 0.0
2016-Jul-18 06:24N 33°44' W 118°17'0 0.5
2016-Jul-18 05:33N 33°45' W 118°16'0 0.2
2016-Jul-18 04:23N 33°45' W 118°16'4 5.2
2016-Jul-18 03:33N 33°43' W 118°12'4 3.8
2016-Jul-18 02:33N 33°44' W 118°16'1 0.9
2016-Jul-18 01:33N 33°44' W 118°17'0 0.0
2016-Jul-18 00:34N 33°44' W 118°17'0 0.0
2016-Jul-17 23:28N 33°44' W 118°17'0 0.0
2016-Jul-17 22:32N 33°44' W 118°17'0 0.0
2016-Jul-17 21:33N 33°44' W 118°17'0 0.0
2016-Jul-17 20:31N 33°44' W 118°17'0 0.0
2016-Jul-17 18:33N 33°44' W 118°17'0 0.0
2016-Jul-17 17:30N 33°44' W 118°17'0 0.0
2016-Jul-17 15:19N 33°44' W 118°17'0 0.0
2016-Jul-17 14:31N 33°44' W 118°17'0 0.0
2016-Jul-17 13:33N 33°44' W 118°17'2 2.3
2016-Jul-17 12:33N 33°43' W 118°15'3 2.6
2016-Jul-17 11:33N 33°45' W 118°16'1 0.6
2016-Jul-17 10:34N 33°44' W 118°17'0 0.0
2016-Jul-17 09:31N 33°44' W 118°17'0 0.0
2016-Jul-17 08:32N 33°44' W 118°17'0 0.0
2016-Jul-17 07:08N 33°44' W 118°17'0 0.0
2016-Jul-17 06:29N 33°44' W 118°17'0 0.0
2016-Jul-17 04:22N 33°44' W 118°17'0 0.0
2016-Jul-17 03:31N 33°44' W 118°17'0 0.0
2016-Jul-17 02:18N 33°44' W 118°17'0 0.0
2016-Jul-17 01:34N 33°44' W 118°17'0 0.0
2016-Jul-17 00:33N 33°44' W 118°17'0 0.0
2016-Jul-16 23:33N 33°44' W 118°17'0 0.0
2016-Jul-16 22:29N 33°44' W 118°17'1 1.2
2016-Jul-16 21:33N 33°43' W 118°16'3 2.9
2016-Jul-16 20:27N 33°46' W 118°14'1 0.3
2016-Jul-16 18:26N 33°46' W 118°13'4 4.2
2016-Jul-16 17:33N 33°43' W 118°15'2 2.0
2016-Jul-16 16:33N 33°44' W 118°17'0 0.0
2016-Jul-16 15:33N 33°44' W 118°17'0 0.0
2016-Jul-16 14:33N 33°44' W 118°17'0 0.0
2016-Jul-16 13:32N 33°44' W 118°17'0 0.0
2016-Jul-16 12:33N 33°44' W 118°17'1 1.4
2016-Jul-16 11:32N 33°46' W 118°16'1 0.6
2016-Jul-16 10:34N 33°46' W 118°15'2 2.0
2016-Jul-16 09:34N 33°44' W 118°17'0 0.0
2016-Jul-16 08:33N 33°44' W 118°17'0 0.0
2016-Jul-16 07:34N 33°44' W 118°17'0 0.0
2016-Jul-16 06:32N 33°44' W 118°17'0 0.0
2016-Jul-16 04:33N 33°44' W 118°17'0 0.0
2016-Jul-16 03:33N 33°44' W 118°17'0 0.0
2016-Jul-16 02:34N 33°44' W 118°17'0 0.0
2016-Jul-16 01:33N 33°44' W 118°17'0 0.0
2016-Jul-16 00:32N 33°44' W 118°17'0 0.0
2016-Jul-15 23:33N 33°44' W 118°17'0 0.0
2016-Jul-15 22:33N 33°44' W 118°17'3 3.2
2016-Jul-15 21:33N 33°46' W 118°13'1 0.6
2016-Jul-15 20:33N 33°45' W 118°13'2 1.7
2016-Jul-15 19:33N 33°43' W 118°13'3 3.2
2016-Jul-15 18:33N 33°44' W 118°17'2 2.3
2016-Jul-15 17:32N 33°46' W 118°14'2 2.5
2016-Jul-15 16:34N 33°44' W 118°17'2 2.4
2016-Jul-15 15:34N 33°43' W 118°14'2 1.7
2016-Jul-15 14:24N 33°45' W 118°13'1 1.5
2016-Jul-15 13:32N 33°46' W 118°13'1 0.9
2016-Jul-15 12:33N 33°45' W 118°13'2 2.3
2016-Jul-15 11:33N 33°44' W 118°11'4 4.4
2016-Jul-15 10:33N 33°44' W 118°17'0 0.0
2016-Jul-15 09:33N 33°44' W 118°17'0 0.0
2016-Jul-15 08:30N 33°44' W 118°17'0 0.0
2016-Jul-15 07:33N 33°44' W 118°17'0 0.0
2016-Jul-15 06:33N 33°44' W 118°17'0 0.0
2016-Jul-15 05:33N 33°44' W 118°17'0 0.0
2016-Jul-15 04:33N 33°44' W 118°17'0 0.0
2016-Jul-15 03:34N 33°44' W 118°17'0 0.0
2016-Jul-15 02:33N 33°44' W 118°17'2 1.5
2016-Jul-15 01:33N 33°43' W 118°16'1 0.8
2016-Jul-15 00:33N 33°44' W 118°15'1 1.2
2016-Jul-14 23:33N 33°44' W 118°17'0 0.0
2016-Jul-14 22:34N 33°44' W 118°17'0 0.0
2016-Jul-14 21:33N 33°44' W 118°17'0 0.0
2016-Jul-14 20:33N 33°44' W 118°17'0 0.0
2016-Jul-14 19:32N 33°44' W 118°17'0 0.0
2016-Jul-14 18:34N 33°44' W 118°17'0 0.0
2016-Jul-14 17:21N 33°44' W 118°17'0 0.0
2016-Jul-14 16:34N 33°44' W 118°17'0 0.0
2016-Jul-14 15:32N 33°44' W 118°17'0 0.0
2016-Jul-14 14:19N 33°44' W 118°17'1 1.5
2016-Jul-14 13:34N 33°44' W 118°16'2 1.6
2016-Jul-14 12:34N 33°43' W 118°14'2 1.8
2016-Jul-14 11:33N 33°44' W 118°12'  

Dump ship's entire track history